Stayton, Oregon
Current Conditions -  °F | °C
As of 3:18 AM on Monday 22 Dec 2014 (Local Time) from KSLE Reporting Station
Overcast Overcast  
Wind Chill: 51°   Ceiling: 3500
Heat Index: 51°   Visibility: 10mi
Dew Point: 49°   Wind: 7mph
Humidity: 92%   Direction: 170°S
Pressure: 30.25"   Gusts: NA
Location:  44.8°N, 122.79°W
Report Text: KSLE 221118Z AUTO 17006KT 10SM SCT020 OVC035 11/09 A3025 RMK AO2 T01060094
Loading
Personal Weather Stations






























Interactive Weather Map New forecast layout! Learn more

10-Day Weather Forecast

Advertisements
Track Severe Weather on mobile